Kelly C — WDI3956 — position and weather

sailwx.info

Track history (hours):
 
Tides and Currents Weather Stations Pressure Air Temp Water Temp Dewpoint Dewpoint Depression Visibility Wind Speed Wind Dir Waves Ship Positions

Kelly C

Owner: Curtin Maritime Corp., Long Beach, CA. More information available from US FCC via Universal Licensing System and Coast Guard Vessel Documentation Center.

Last reported at 2017-Dec-11 11:36 UTC. Time now 2017-Dec-13 22:30 UTC.
Position N 33°13' W 118°20'.

Length 25 m; draft 3 m.

Type: Towing. MMSI: 367693690.

Date/timePositionNaut miles runAvg speedWind from/ knotsBaromVisibWave heightAir tempDewpointWater temp
2017-Dec-11 11:36N 33°13' W 118°20'1 7.0
2017-Dec-11 11:30N 33°14' W 118°20'3 6.8
2017-Dec-11 11:00N 33°17' W 118°17'  
2017-Dec-08 21:18N 33°33' W 118°02'311.6
2017-Dec-08 21:00N 33°30' W 117°60'611.5
2017-Dec-08 20:30N 33°25' W 117°56'611.4
2017-Dec-08 20:00N 33°21' W 117°52'711.4
2017-Dec-08 19:22N 33°15' W 117°47'411.1
2017-Dec-08 19:00N 33°11' W 117°44'611.2
2017-Dec-08 18:30N 33°07' W 117°41'611.3
2017-Dec-08 18:00N 33°02' W 117°37'611.4
2017-Dec-08 17:30N 32°57' W 117°33'611.1
2017-Dec-08 17:00N 32°52' W 117°30'611.0
2017-Dec-08 16:30N 32°48' W 117°26'510.7
2017-Dec-08 16:00N 32°43' W 117°23'3 0.3
2017-Dec-08 05:32N 32°41' W 117°20'0 3.2
2017-Dec-08 05:29N 32°41' W 117°21'1 2.6
2017-Dec-08 05:00N 32°42' W 117°21'1 3.0
2017-Dec-08 04:30N 32°43' W 117°22'2 3.2
2017-Dec-08 04:00N 32°45' W 117°23'2 3.2
2017-Dec-08 03:30N 32°46' W 117°24'2 3.2
2017-Dec-08 03:00N 32°48' W 117°25'2 3.0
2017-Dec-08 02:30N 32°49' W 117°25'2 4.5
2017-Dec-08 02:00N 32°51' W 117°27'3 5.2
2017-Dec-08 01:30N 32°53' W 117°28'3 6.3
2017-Dec-08 01:00N 32°56' W 117°30'3 6.4
2017-Dec-08 00:30N 32°59' W 117°32'3 6.2
2017-Dec-08 00:00N 33°01' W 117°34'3 6.4
2017-Dec-07 23:30N 33°04' W 117°37'3 6.0
2017-Dec-07 23:00N 33°06' W 117°39'3 5.9
2017-Dec-07 22:30N 33°09' W 117°41'3 5.9
2017-Dec-07 22:00N 33°11' W 117°43'3 6.2
2017-Dec-07 21:30N 33°14' W 117°45'5 6.1
2017-Dec-07 20:40N 33°18' W 117°49'1 5.8
2017-Dec-07 20:30N 33°18' W 117°49'3 6.1
2017-Dec-07 20:00N 33°21' W 117°52'  
2017-Dec-04 01:16N 33°46' W 118°13'0 0.0
2017-Dec-04 00:58N 33°46' W 118°13'0 0.0
2017-Dec-03 08:52N 33°46' W 118°13'0 0.0
2017-Dec-03 08:04N 33°46' W 118°13'0 0.0
2017-Dec-03 07:52N 33°46' W 118°13'0 0.0
2017-Dec-03 07:28N 33°46' W 118°13'  
Track history (hours):
 
Tides and Currents Weather Stations Pressure Air Temp Water Temp Dewpoint Dewpoint Depression Visibility Wind Speed Wind Dir Waves Ship Positions

Kelly C

Owner: Curtin Maritime Corp., Long Beach, CA. More information available from US FCC via Universal Licensing System and Coast Guard Vessel Documentation Center.

Last reported at 2017-Dec-11 11:36 UTC. Time now 2017-Dec-13 22:30 UTC.
Position N 33°13' W 118°20'.

Length 25 m; draft 3 m.

Type: Towing. MMSI: 367693690.

Date/timePositionNaut miles runAvg speedWind from/ knotsBaromVisibWave heightAir tempDewpointWater temp
2017-Dec-11 11:36N 33°13' W 118°20'1 7.0
2017-Dec-11 11:30N 33°14' W 118°20'3 6.8
2017-Dec-11 11:00N 33°17' W 118°17'  
2017-Dec-08 21:18N 33°33' W 118°02'311.6
2017-Dec-08 21:00N 33°30' W 117°60'611.5
2017-Dec-08 20:30N 33°25' W 117°56'611.4
2017-Dec-08 20:00N 33°21' W 117°52'711.4
2017-Dec-08 19:22N 33°15' W 117°47'411.1
2017-Dec-08 19:00N 33°11' W 117°44'611.2
2017-Dec-08 18:30N 33°07' W 117°41'611.3
2017-Dec-08 18:00N 33°02' W 117°37'611.4
2017-Dec-08 17:30N 32°57' W 117°33'611.1
2017-Dec-08 17:00N 32°52' W 117°30'611.0
2017-Dec-08 16:30N 32°48' W 117°26'510.7
2017-Dec-08 16:00N 32°43' W 117°23'3 0.3
2017-Dec-08 05:32N 32°41' W 117°20'0 3.2
2017-Dec-08 05:29N 32°41' W 117°21'1 2.6
2017-Dec-08 05:00N 32°42' W 117°21'1 3.0
2017-Dec-08 04:30N 32°43' W 117°22'2 3.2
2017-Dec-08 04:00N 32°45' W 117°23'2 3.2
2017-Dec-08 03:30N 32°46' W 117°24'2 3.2
2017-Dec-08 03:00N 32°48' W 117°25'2 3.0
2017-Dec-08 02:30N 32°49' W 117°25'2 4.5
2017-Dec-08 02:00N 32°51' W 117°27'3 5.2
2017-Dec-08 01:30N 32°53' W 117°28'3 6.3
2017-Dec-08 01:00N 32°56' W 117°30'3 6.4
2017-Dec-08 00:30N 32°59' W 117°32'3 6.2
2017-Dec-08 00:00N 33°01' W 117°34'3 6.4
2017-Dec-07 23:30N 33°04' W 117°37'3 6.0
2017-Dec-07 23:00N 33°06' W 117°39'3 5.9
2017-Dec-07 22:30N 33°09' W 117°41'3 5.9
2017-Dec-07 22:00N 33°11' W 117°43'3 6.2
2017-Dec-07 21:30N 33°14' W 117°45'5 6.1
2017-Dec-07 20:40N 33°18' W 117°49'1 5.8
2017-Dec-07 20:30N 33°18' W 117°49'3 6.1
2017-Dec-07 20:00N 33°21' W 117°52'  
2017-Dec-04 01:16N 33°46' W 118°13'0 0.0
2017-Dec-04 00:58N 33°46' W 118°13'0 0.0
2017-Dec-03 08:52N 33°46' W 118°13'0 0.0
2017-Dec-03 08:04N 33°46' W 118°13'0 0.0
2017-Dec-03 07:52N 33°46' W 118°13'0 0.0
2017-Dec-03 07:28N 33°46' W 118°13'  

Dump ship's entire track history